Hovedside
METAR-TAF:

METAR-TAF

Lufthavner :

Visby, Gotland, Sverige

Visby lufthavn

breddegrad: 57-40N, lengdegrad: 018-21E, høyde over havet: 51 m

Gjeldene værobservasjon

Denne rapporten ble laget for 33 minutter siden, klokken 06:50 UTC
Vind 10 kt fra Vest-nordvest
Temperatur 8°C
Luftfuktighet 76%
Trykk 1009 hPa
Sikt 10 km eller mer
ingen skyer under 1500 m og ingen bygeskyer

METAR: ESSV 210650Z 30010KT CAVOK 08/04 Q1009

Tid: 09:23 (07:23 UTC)

Varsel

Denne rapporten ble laget for 1 time og 53 minutter siden, klokken 05:30 UTC
Varsel gyldig fra 21. klokken 06 UTC til 21. klokken 15 UTC
Vind 12 kt fra Vest
Sikt 10 km eller mer
ingen skyer under 1500 m og ingen bygeskyer

TAF: ESSV 210530Z 2106/2115 28012KT CAVOK

Værobservasjoner og værvarsel for over 4000 flyplasser (METAR- og TAF-rapporter).

Tilgjengelige stasjoner er representert av de røde og gule prikkene på kartet.

Hold musepekeren over prikken for å se navnet på stasjonen.

Klikk så for å se værobservasjoner og -varsler.

For å forandre kartet kan du klikke på den grønne knappen med svart kryss for å zoome inn, på den grønne knappen med strek for å zoome ut, eller på de grønne pilene for å se tilstøtende kart.


METAR-TAF: